AIRPORT_AIRPORT_METAR
METAR FOR LFGA
ADDS - METARS form results

(1632 UTC 24 August 2019)
Data provider http://aviationweather.gov/metar/data/
 
METAR text: LFGA 241600Z AUTO VRB03KT CAVOK 27/14 Q1019
Conditions at: LFGA (COLMAR HOUSSEN , FR) observed 1600 UTC 24 August 2019
Temperature: 27.0°C (81°F)
Dewpoint: 14.0°C (57°F) [RH = 45%]
Pressure (altimeter): 30.09 inches Hg (1019.0 mb)
Winds: variable direction winds at 3 MPH (3 knots; 1.5 m/s)
Visibility: 6 or more miles (10+ km)
Ceiling: ceiling and visibility are OK
Clouds: unknown
Weather: no significant weather observed at this time

 AIRPORT_AIRPORT_MAP

 AIRPORT_RUNWAY_INFO
AIRPORT_RUNWAY 01 AIRPORT_RUNWAY_LENGTH 5282 ft AIRPORT_RUNWAY_WIDTH 98 ft
AIRPORT_RUNWAY_ELEVATION 627 ft AIRPORT_RUNWAY_THRESHOLD 689 ft AIRPORT_RUNWAY_HEADING 11
AIRPORT_RUNWAY 19 AIRPORT_RUNWAY_LENGTH 5282 ft AIRPORT_RUNWAY_WIDTH 98 ft
AIRPORT_RUNWAY_ELEVATION 612 ft AIRPORT_RUNWAY_THRESHOLD 0 ft AIRPORT_RUNWAY_HEADING 191

 AIRPORT_AIRPORT_FREQUENCIES
AIRPORT_AIRPORT_NAVAIDS_TYPE TWR AIRPORT_AIRPORT_NAVAIDS_NAME TWR AIRPORT_AIRPORT_NAVAIDS_FREQ 119 MHZ

 AIRPORT_AIRPORT_NAVAIDS



Copyright © 2005-2019 - Virtuel Air Alsace - Tous droits réservés